Princeton's Hourly Summary for Wednesday, May 16, 2018
Hour Temp
(f)
RH
(%)
Solar Rad.
(MJ/m2)
Rainfall
(in)
Wind
(mph)
5/16/2018 12:00 AM 68 75 0 0 0.87
5/16/2018 1:00 AM 66 79 0 0 0.11
5/16/2018 2:00 AM 65 84 0 0 0.48
5/16/2018 3:00 AM 65 99 0 0 0.36
5/16/2018 4:00 AM 65 98 0 0 0.25
5/16/2018 5:00 AM 64 99 0 0 0.72
5/16/2018 6:00 AM 65 99 0 0 1.24
5/16/2018 7:00 AM 65 95 0.04 0 0.71
5/16/2018 8:00 AM 66 79 0.44 0 0.33
5/16/2018 9:00 AM 71 64 1.27 0 2.02
5/16/2018 10:00 AM 75 57 1.93 0 1.36
5/16/2018 11:00 AM 78 54 2.5 0 2
5/16/2018 12:00 PM 79 53 1.59 0 1.46
5/16/2018 1:00 PM 81 48 2.84 0 1.99
5/16/2018 2:00 PM 84 44 3.39 0 2.33
5/16/2018 3:00 PM 86 40 3.16 0 2.32
5/16/2018 4:00 PM 87 36 2.73 0 3.37
5/16/2018 5:00 PM 88 35 2.22 0 4.37
5/16/2018 6:00 PM 87 34 1.78 0 3.53
5/16/2018 7:00 PM 85 40 1.05 0 2.65
5/16/2018 8:00 PM 83 45 0.27 0 2.88
5/16/2018 9:00 PM 78 53 0.01 0 1.19
5/16/2018 10:00 PM 75 65 0 0 0.06
5/16/2018 11:00 PM 72 69 0 0 0
Data Summary 74 64 25.22 0.00 1.53